createdAt,value
2023-04-01T00:01:17.937Z,51.61
2023-04-01T00:03:47.087Z,51.05
2023-04-01T00:06:17.647Z,51.62
2023-04-01T00:08:47.026Z,52.15
2023-04-01T00:11:16.173Z,51.37
2023-04-01T00:13:44.999Z,51.81
2023-04-01T00:16:21.783Z,50.80
2023-04-01T00:18:51.909Z,51.46
2023-04-01T00:21:20.521Z,51.25
2023-04-01T00:23:48.908Z,51.02
2023-04-01T00:26:20.323Z,51.30
2023-04-01T00:28:49.786Z,51.63
2023-04-01T00:31:18.190Z,51.09
2023-04-01T00:33:47.087Z,50.50
2023-04-01T00:36:18.274Z,51.84
2023-04-01T00:38:47.236Z,51.05
2023-04-01T00:41:17.002Z,50.85
2023-04-01T00:43:49.148Z,50.41
2023-04-01T00:46:17.359Z,51.04
2023-04-01T00:48:57.085Z,51.27
2023-04-01T00:51:31.914Z,51.13
2023-04-01T00:54:04.900Z,51.08
2023-04-01T00:56:38.148Z,51.49
2023-04-01T00:59:12.381Z,51.45
2023-04-01T01:01:40.324Z,52.12
2023-04-01T01:04:20.355Z,51.35
2023-04-01T01:07:10.253Z,51.51
2023-04-01T01:10:09.362Z,51.44
2023-04-01T01:13:06.680Z,51.45
2023-04-01T01:15:48.619Z,50.98
2023-04-01T01:18:38.343Z,50.81
2023-04-01T01:21:25.184Z,50.87
2023-04-01T01:24:26.435Z,50.80
2023-04-01T01:27:07.486Z,51.10
2023-04-01T01:30:11.458Z,50.18
2023-04-01T01:32:54.903Z,50.81
2023-04-01T01:35:29.570Z,50.95
2023-04-01T01:38:05.298Z,50.33
2023-04-01T01:40:35.777Z,51.08
2023-04-01T01:43:12.427Z,50.94
2023-04-01T01:45:48.815Z,50.82
2023-04-01T01:48:18.764Z,51.07
2023-04-01T01:50:48.953Z,50.89
2023-04-01T01:53:17.679Z,51.15
2023-04-01T01:55:47.934Z,49.63
2023-04-01T01:58:22.444Z,49.86
2023-04-01T02:00:56.036Z,50.13
2023-04-01T02:03:27.374Z,49.63
2023-04-01T02:05:59.070Z,49.20
2023-04-01T02:09:04.887Z,49.81
2023-04-01T02:11:45.321Z,49.79
2023-04-01T02:14:21.347Z,48.86
2023-04-01T02:17:03.546Z,49.41
2023-04-01T02:19:39.488Z,48.98
2023-04-01T02:22:14.761Z,48.86
2023-04-01T02:24:44.972Z,48.49
2023-04-01T02:27:13.247Z,48.35
2023-04-01T02:29:41.687Z,48.35
2023-04-01T02:32:11.336Z,49.02
2023-04-01T02:34:40.650Z,48.57
2023-04-01T02:37:08.776Z,48.24
2023-04-01T02:39:36.970Z,48.67
2023-04-01T02:42:04.928Z,49.12
2023-04-01T02:44:33.736Z,48.26
2023-04-01T02:47:02.268Z,48.58
2023-04-01T02:49:30.639Z,48.44
2023-04-01T02:51:58.511Z,48.33
2023-04-01T02:54:26.830Z,48.98
2023-04-01T02:56:54.882Z,48.91
2023-04-01T02:59:23.229Z,48.49
2023-04-01T03:01:51.302Z,47.59
2023-04-01T03:04:19.585Z,47.83
2023-04-01T03:06:47.620Z,47.91
2023-04-01T03:09:16.514Z,48.79
2023-04-01T03:11:44.938Z,48.22
2023-04-01T03:14:13.288Z,48.80
2023-04-01T03:16:41.214Z,48.03
2023-04-01T03:19:09.506Z,48.25
2023-04-01T03:21:37.624Z,48.02
2023-04-01T03:24:07.623Z,48.44
2023-04-01T03:26:35.488Z,48.18
2023-04-01T03:29:04.046Z,47.86
2023-04-01T03:31:32.375Z,47.79
2023-04-01T03:34:00.796Z,47.73
2023-04-01T03:36:29.260Z,47.51
2023-04-01T03:38:57.558Z,47.60
2023-04-01T03:41:38.416Z,46.50
2023-04-01T03:44:07.637Z,47.18
2023-04-01T03:46:35.954Z,46.78
2023-04-01T03:49:04.417Z,45.79
2023-04-01T03:51:32.289Z,46.64
2023-04-01T03:54:00.641Z,46.78
2023-04-01T03:56:28.797Z,46.68
2023-04-01T03:58:57.412Z,46.41
2023-04-01T04:01:26.043Z,45.41
2023-04-01T04:03:57.605Z,46.05
2023-04-01T04:06:26.209Z,46.51
2023-04-01T04:08:57.697Z,45.65
2023-04-01T04:11:27.479Z,45.29
2023-04-01T04:13:57.154Z,46.05
2023-04-01T04:16:26.091Z,46.20
2023-04-01T04:19:01.145Z,45.26
2023-04-01T04:21:29.063Z,45.12
2023-04-01T04:23:57.508Z,45.11
2023-04-01T04:26:28.081Z,45.95
2023-04-01T04:29:01.559Z,45.13
2023-04-01T04:31:29.927Z,45.21
2023-04-01T04:34:02.534Z,45.55
2023-04-01T04:36:33.990Z,44.73
2023-04-01T04:39:05.209Z,45.31
2023-04-01T04:41:37.530Z,45.18
2023-04-01T04:44:06.818Z,46.10
2023-04-01T04:46:34.882Z,45.25
2023-04-01T04:49:16.712Z,45.41
2023-04-01T04:51:45.245Z,44.70
2023-04-01T04:54:16.211Z,44.58
2023-04-01T04:57:04.609Z,44.34
2023-04-01T04:59:38.662Z,45.20
2023-04-01T05:02:22.875Z,45.00
2023-04-01T05:04:51.148Z,45.47
2023-04-01T05:07:19.135Z,45.53
2023-04-01T05:09:48.272Z,45.44
2023-04-01T05:12:16.264Z,45.42
2023-04-01T05:14:58.835Z,45.37
2023-04-01T05:17:27.222Z,44.96
2023-04-01T05:19:55.964Z,46.06
2023-04-01T05:22:24.796Z,45.73
2023-04-01T05:24:53.200Z,45.00
2023-04-01T05:27:21.919Z,44.16
2023-04-01T05:29:50.213Z,44.82
2023-04-01T05:32:36.659Z,44.32
2023-04-01T05:35:06.002Z,44.41
2023-04-01T05:37:36.442Z,44.84
2023-04-01T05:40:10.138Z,44.15
2023-04-01T05:43:00.667Z,44.23
2023-04-01T05:45:56.408Z,44.63
2023-04-01T05:48:40.878Z,44.37
2023-04-01T05:51:18.625Z,45.73
2023-04-01T06:09:08.850Z,44.00
2023-04-01T06:12:02.728Z,44.41
2023-04-01T06:14:42.947Z,44.65
2023-04-01T06:17:20.267Z,45.26
2023-04-01T06:20:22.923Z,44.54
2023-04-01T06:22:59.791Z,44.49
2023-04-01T06:25:30.513Z,44.34
2023-04-01T06:28:39.100Z,44.25
2023-04-01T06:31:43.379Z,45.36
2023-04-01T06:34:43.125Z,44.99
2023-04-01T06:37:37.500Z,44.98
2023-04-01T06:40:24.538Z,47.16
2023-04-01T06:43:25.321Z,46.53
2023-04-01T06:51:53.063Z,45.62
2023-04-01T06:54:43.850Z,45.36
2023-04-01T06:57:38.594Z,46.48
2023-04-01T07:00:18.759Z,46.06
2023-04-01T07:02:56.940Z,45.33
2023-04-01T07:05:27.073Z,45.07
2023-04-01T07:08:02.455Z,45.58
2023-04-01T07:10:46.365Z,45.76
2023-04-01T07:14:04.701Z,45.28
2023-04-01T07:16:45.649Z,44.95
2023-04-01T07:19:22.343Z,45.33
2023-04-01T07:22:40.291Z,44.85
2023-04-01T07:25:27.481Z,45.37
2023-04-01T07:28:18.124Z,44.99
2023-04-01T07:30:52.148Z,44.60
2023-04-01T07:33:45.806Z,44.58
2023-04-01T07:36:17.726Z,43.99
2023-04-01T07:38:46.202Z,44.69
2023-04-01T07:41:45.636Z,45.09
2023-04-01T07:44:29.441Z,44.95
2023-04-01T07:47:17.499Z,44.47
2023-04-01T07:50:01.045Z,44.42
2023-04-01T07:52:51.662Z,45.44
2023-04-01T07:55:45.941Z,44.87
2023-04-01T07:58:35.018Z,45.66
2023-04-01T08:01:47.441Z,45.70
2023-04-01T08:04:26.966Z,46.03
2023-04-01T08:07:12.309Z,45.80
2023-04-01T08:10:09.868Z,45.76
2023-04-01T08:13:26.433Z,46.37
2023-04-01T08:16:19.096Z,46.07
2023-04-01T08:19:06.978Z,46.44
2023-04-01T08:21:45.376Z,46.00
2023-04-01T08:24:44.280Z,46.46
2023-04-01T08:27:29.730Z,45.65
2023-04-01T08:30:03.411Z,45.87
2023-04-01T08:32:42.648Z,45.23
2023-04-01T08:35:19.834Z,44.88
2023-04-01T08:37:51.700Z,44.63
2023-04-01T08:40:35.996Z,44.61
2023-04-01T08:43:25.628Z,44.67
2023-04-01T08:46:11.848Z,44.67
2023-04-01T08:49:00.805Z,43.93
2023-04-01T08:51:33.848Z,43.46
2023-04-01T08:54:30.842Z,43.28
2023-04-01T08:57:29.709Z,42.93
2023-04-01T09:00:22.351Z,42.48
2023-04-01T09:03:43.951Z,42.71
2023-04-01T09:06:33.321Z,42.40
2023-04-01T09:09:28.821Z,43.10
2023-04-01T09:12:23.614Z,42.73
2023-04-01T09:15:29.756Z,42.51
2023-04-01T09:18:14.255Z,42.49
2023-04-01T09:20:52.082Z,42.09
2023-04-01T09:23:54.535Z,41.95
2023-04-01T09:26:49.817Z,41.88
2023-04-01T09:29:43.343Z,41.59
2023-04-01T09:32:25.110Z,42.18
2023-04-01T09:35:42.305Z,41.66
2023-04-01T09:38:10.183Z,41.60
2023-04-01T09:40:59.860Z,42.09
2023-04-01T09:44:00.178Z,40.98
2023-04-01T09:46:47.104Z,40.85
2023-04-01T09:49:27.088Z,41.17
2023-04-01T09:51:56.626Z,40.90
2023-04-01T09:54:47.145Z,40.78
2023-04-01T09:57:48.477Z,40.48
2023-04-01T10:01:16.494Z,39.91
2023-04-01T10:04:12.259Z,39.97
2023-04-01T10:07:10.109Z,39.70
2023-04-01T10:12:53.358Z,40.15
2023-04-01T10:15:43.648Z,40.39
2023-04-01T10:18:36.522Z,40.23
2023-04-01T10:21:31.730Z,40.47
2023-04-01T10:24:27.077Z,40.40
2023-04-01T10:27:33.426Z,40.35
2023-04-01T10:30:31.968Z,40.18
2023-04-01T10:33:16.753Z,40.71
2023-04-01T10:36:10.084Z,39.91
2023-04-01T10:38:54.520Z,39.14
2023-04-01T10:41:47.816Z,39.30
2023-04-01T10:45:12.016Z,40.03
2023-04-01T10:48:25.105Z,40.37
2023-04-01T10:51:07.153Z,40.44
2023-04-01T10:53:59.829Z,40.08
2023-04-01T10:57:31.773Z,39.74
2023-04-01T11:00:39.726Z,40.35
2023-04-01T11:03:35.556Z,39.64
2023-04-01T11:06:37.226Z,39.95
2023-04-01T11:09:42.770Z,39.50
2023-04-01T11:12:38.548Z,39.75
2023-04-01T11:15:12.834Z,40.07
2023-04-01T11:17:59.751Z,40.50
2023-04-01T11:21:07.186Z,40.28
2023-04-01T11:24:06.142Z,40.33
2023-04-01T11:27:12.812Z,40.94
2023-04-01T11:30:24.283Z,40.99
2023-04-01T11:33:29.695Z,40.72
2023-04-01T11:36:28.635Z,40.69
2023-04-01T11:39:31.550Z,40.60
2023-04-01T11:42:38.743Z,40.90
2023-04-01T11:45:53.826Z,40.53
2023-04-01T11:48:37.731Z,40.17
2023-04-01T11:51:20.632Z,40.26
2023-04-01T11:53:54.672Z,39.97
2023-04-01T11:56:40.379Z,40.04
2023-04-01T11:59:41.797Z,39.98
2023-04-01T12:02:27.169Z,40.02
2023-04-01T12:05:19.830Z,40.31
2023-04-01T12:08:35.229Z,40.06
2023-04-01T12:11:27.181Z,40.35
2023-04-01T12:14:25.019Z,40.10
2023-04-01T12:17:19.627Z,40.30
2023-04-01T12:19:50.814Z,40.35
2023-04-01T12:22:42.859Z,40.57
2023-04-01T12:25:44.628Z,39.82
2023-04-01T12:28:38.806Z,39.82
2023-04-01T12:31:30.120Z,39.69
2023-04-01T12:34:13.031Z,40.08
2023-04-01T12:36:49.883Z,40.06
2023-04-01T12:39:40.968Z,39.82
2023-04-01T12:42:29.676Z,39.81
2023-04-01T12:45:14.059Z,40.03
2023-04-01T12:48:00.786Z,39.90
2023-04-01T12:50:54.510Z,39.82
2023-04-01T12:53:44.373Z,40.28
2023-04-01T12:56:55.537Z,39.60
2023-04-01T12:59:55.909Z,39.86
2023-04-01T13:02:29.522Z,40.28
2023-04-01T13:05:16.973Z,40.33
2023-04-01T13:08:10.778Z,39.93
2023-04-01T13:11:15.308Z,39.77
2023-04-01T13:14:24.994Z,39.81
2023-04-01T13:17:38.690Z,39.91
2023-04-01T13:20:44.071Z,39.77
2023-04-01T13:23:21.242Z,39.96
2023-04-01T13:26:26.370Z,40.45
2023-04-01T13:29:03.298Z,39.60
2023-04-01T13:31:49.434Z,40.52
2023-04-01T13:34:41.466Z,40.41
2023-04-01T13:37:18.708Z,40.43
2023-04-01T13:40:04.314Z,40.02
2023-04-01T13:43:03.734Z,40.11
2023-04-01T13:46:21.294Z,40.38
2023-04-01T13:49:33.409Z,40.26
2023-04-01T13:52:21.331Z,41.01
2023-04-01T13:55:18.248Z,40.77
2023-04-01T13:57:59.038Z,40.77
2023-04-01T14:00:57.808Z,40.60
2023-04-01T14:03:57.132Z,40.59
2023-04-01T14:06:39.108Z,40.41
2023-04-01T14:09:44.945Z,40.55
2023-04-01T14:12:51.740Z,40.23
2023-04-01T14:15:23.556Z,40.51
2023-04-01T14:18:03.632Z,40.33
2023-04-01T14:21:02.497Z,39.96
2023-04-01T14:24:00.559Z,39.97
2023-04-01T14:27:04.545Z,40.15
2023-04-01T14:29:51.111Z,40.33
2023-04-01T14:32:59.745Z,40.29
2023-04-01T14:35:53.797Z,40.12
2023-04-01T14:38:50.604Z,40.41
2023-04-01T14:41:50.870Z,40.00
2023-04-01T14:44:52.707Z,40.41
2023-04-01T14:47:51.990Z,40.18
2023-04-01T14:50:24.514Z,40.04
2023-04-01T14:53:11.077Z,40.36
2023-04-01T14:55:43.379Z,40.44
2023-04-01T14:58:14.753Z,40.28
2023-04-01T15:00:58.525Z,40.54
2023-04-01T15:03:35.584Z,40.40
2023-04-01T15:06:39.667Z,40.50
2023-04-01T15:09:26.253Z,40.50
2023-04-01T15:12:47.850Z,40.40
2023-04-01T15:15:28.034Z,40.75
2023-04-01T15:18:14.259Z,40.89
2023-04-01T15:20:57.640Z,40.75
2023-04-01T15:23:47.257Z,40.66
2023-04-01T15:26:23.538Z,40.85
2023-04-01T15:29:03.898Z,40.84
2023-04-01T15:31:47.183Z,40.88
2023-04-01T15:34:45.553Z,40.92
2023-04-01T15:37:37.604Z,40.81
2023-04-01T15:40:32.257Z,41.18
2023-04-01T15:43:23.366Z,41.29
2023-04-01T15:46:16.584Z,40.92
2023-04-01T15:49:00.866Z,40.74
2023-04-01T15:51:48.006Z,41.03
2023-04-01T15:54:59.725Z,40.91
2023-04-01T15:57:43.246Z,40.35
2023-04-01T16:00:25.042Z,40.62
2023-04-01T16:03:19.638Z,39.88
2023-04-01T16:06:09.320Z,39.88
2023-04-01T16:08:48.322Z,40.63
2023-04-01T16:11:32.741Z,40.67
2023-04-01T16:14:39.785Z,39.98
2023-04-01T16:17:30.860Z,40.18
2023-04-01T16:20:11.659Z,39.85
2023-04-01T16:22:46.284Z,39.64
2023-04-01T16:25:39.292Z,39.13
2023-04-01T16:28:51.569Z,39.60
2023-04-01T16:31:44.091Z,38.86
2023-04-01T16:34:32.638Z,39.22
2023-04-01T16:37:16.862Z,38.91
2023-04-01T16:40:10.816Z,38.15
2023-04-01T16:42:45.016Z,37.94
2023-04-01T16:45:49.330Z,37.99
2023-04-01T16:48:24.217Z,38.00
2023-04-01T16:51:11.210Z,36.93
2023-04-01T16:53:47.151Z,36.04
2023-04-01T16:56:31.439Z,36.42
2023-04-01T16:59:08.857Z,36.71
2023-04-01T17:01:53.825Z,36.30
2023-04-01T17:04:42.563Z,36.09
2023-04-01T17:07:20.374Z,36.43
2023-04-01T17:10:07.156Z,36.36
2023-04-01T17:13:16.150Z,36.43
2023-04-01T17:16:16.684Z,37.04
2023-04-01T17:19:12.521Z,37.95
2023-04-01T17:22:03.050Z,37.42
2023-04-01T17:24:56.108Z,38.08
2023-04-01T17:27:55.326Z,38.49
2023-04-01T17:30:38.944Z,37.55
2023-04-01T17:33:11.559Z,36.98
2023-04-01T17:35:53.315Z,37.31
2023-04-01T17:38:36.939Z,38.36
2023-04-01T17:41:07.610Z,37.88
2023-04-01T17:43:42.618Z,37.59
2023-04-01T17:46:35.381Z,38.16
2023-04-01T17:49:20.662Z,38.17
2023-04-01T17:52:29.354Z,38.10
2023-04-01T17:55:04.826Z,38.24
2023-04-01T17:57:58.938Z,38.28
2023-04-01T18:00:50.449Z,38.13
2023-04-01T18:03:45.091Z,37.34
2023-04-01T18:06:44.877Z,37.80
2023-04-01T18:09:26.925Z,38.27
2023-04-01T18:12:28.060Z,37.96
2023-04-01T18:15:32.503Z,38.46
2023-04-01T18:18:27.292Z,38.05
2023-04-01T18:21:15.040Z,37.74
2023-04-01T18:24:32.974Z,38.11
2023-04-01T18:27:26.731Z,38.10
2023-04-01T18:30:30.762Z,37.98
2023-04-01T18:33:06.041Z,37.96
2023-04-01T18:36:16.004Z,37.87
2023-04-01T18:39:03.308Z,37.91
2023-04-01T18:41:49.235Z,38.09
2023-04-01T18:44:42.754Z,38.36
2023-04-01T18:47:48.943Z,37.40
2023-04-01T18:50:39.658Z,37.15
2023-04-01T18:53:31.871Z,38.38
2023-04-01T18:56:19.076Z,37.36
2023-04-01T18:59:08.385Z,37.82
2023-04-01T19:02:29.157Z,37.67
2023-04-01T19:05:12.436Z,37.94
2023-04-01T19:07:58.157Z,37.95
2023-04-01T19:10:59.236Z,37.95
2023-04-01T19:14:02.245Z,37.81
2023-04-01T19:16:47.525Z,37.50
2023-04-01T19:19:52.764Z,37.13
2023-04-01T19:23:12.807Z,36.90
2023-04-01T19:25:57.209Z,42.88
2023-04-01T19:28:54.592Z,44.94
2023-04-01T19:31:47.843Z,45.27
2023-04-01T19:34:47.614Z,47.91
2023-04-01T19:37:47.626Z,50.38
2023-04-01T19:40:19.222Z,50.34
2023-04-01T19:43:15.656Z,50.05
2023-04-01T19:46:02.841Z,49.79
2023-04-01T19:49:53.397Z,49.70
2023-04-01T19:56:17.123Z,49.99
2023-04-01T20:00:18.408Z,48.67
2023-04-01T20:15:45.968Z,49.52
2023-04-01T20:19:10.375Z,49.21
2023-04-01T20:26:06.052Z,49.35
2023-04-01T20:42:30.039Z,48.93
2023-04-01T20:46:24.440Z,48.45
2023-04-01T20:53:15.357Z,47.93
2023-04-01T20:56:42.754Z,47.77
2023-04-01T21:00:28.104Z,47.02
2023-04-01T21:04:24.389Z,47.55
2023-04-01T21:11:27.938Z,48.11
2023-04-01T21:15:10.987Z,47.77
2023-04-01T21:19:42.736Z,47.53
2023-04-01T21:23:05.897Z,47.19
2023-04-01T21:26:24.657Z,48.31
2023-04-01T21:33:44.190Z,47.91
2023-04-01T21:37:45.583Z,51.28
2023-04-01T21:40:51.793Z,50.93
2023-04-01T21:43:20.126Z,51.41
2023-04-01T21:46:22.700Z,50.24
2023-04-01T21:49:20.945Z,50.64
2023-04-01T21:51:52.785Z,53.90
2023-04-01T21:54:41.108Z,53.86
2023-04-01T21:57:37.351Z,52.93
2023-04-01T22:00:33.183Z,53.86
2023-04-01T22:03:38.489Z,54.69
2023-04-01T22:06:26.595Z,54.39
2023-04-01T22:08:58.367Z,54.50
2023-04-01T22:11:38.216Z,54.63
2023-04-01T22:14:27.725Z,54.39
2023-04-01T22:17:04.956Z,54.48
2023-04-01T22:19:47.822Z,54.47
2023-04-01T22:22:42.232Z,55.79
2023-04-01T22:25:14.213Z,55.22
2023-04-01T22:27:53.866Z,54.71
2023-04-01T22:30:25.268Z,55.06
2023-04-01T22:33:08.377Z,54.88
2023-04-01T22:35:48.468Z,54.07
2023-04-01T22:38:43.287Z,53.10
2023-04-01T22:41:39.016Z,52.33
2023-04-01T22:44:27.036Z,52.59
2023-04-01T22:47:00.719Z,49.67
2023-04-01T22:49:43.497Z,48.30
2023-04-01T22:52:20.068Z,48.02
2023-04-01T22:54:56.865Z,47.35
2023-04-01T22:57:32.010Z,52.25
2023-04-01T23:00:35.867Z,52.38
2023-04-01T23:03:28.991Z,50.20
2023-04-01T23:06:03.025Z,49.48
2023-04-01T23:08:43.138Z,47.73
2023-04-01T23:11:21.217Z,47.36
2023-04-01T23:13:55.438Z,46.88
2023-04-01T23:16:34.441Z,46.48
2023-04-01T23:19:09.907Z,47.40
2023-04-01T23:21:55.747Z,46.94
2023-04-01T23:24:34.691Z,47.22
2023-04-01T23:27:21.137Z,47.35
2023-04-01T23:29:49.121Z,47.10
2023-04-01T23:32:19.989Z,46.63
2023-04-01T23:34:51.226Z,46.98
2023-04-01T23:37:21.670Z,45.99
2023-04-01T23:40:13.913Z,45.91
2023-04-01T23:42:43.035Z,46.53
2023-04-01T23:45:23.867Z,47.14
2023-04-01T23:47:53.459Z,47.75
2023-04-01T23:50:25.524Z,47.75
2023-04-01T23:53:12.426Z,47.06
2023-04-01T23:55:43.566Z,46.13
2023-04-01T23:58:24.029Z,47.75
